createdAt,value
2017-11-07T00:00:25.728Z,0
2017-11-07T00:01:25.750Z,0
2017-11-07T00:02:25.114Z,0
2017-11-07T00:03:26.092Z,0
2017-11-07T00:04:26.125Z,0
2017-11-07T00:05:25.483Z,0
2017-11-07T00:06:25.500Z,0
2017-11-07T00:07:25.845Z,0
2017-11-07T00:08:25.862Z,0
2017-11-07T00:09:26.249Z,0
2017-11-07T00:10:25.569Z,0
2017-11-07T00:11:25.584Z,0
2017-11-07T00:12:26.240Z,0
2017-11-07T00:13:25.619Z,0
2017-11-07T00:14:26.341Z,0
2017-11-07T00:15:26.304Z,0
2017-11-07T00:16:25.999Z,0
2017-11-07T00:17:26.350Z,0
2017-11-07T00:18:25.712Z,0
2017-11-07T00:19:26.377Z,0
2017-11-07T00:20:26.055Z,0
2017-11-07T00:21:26.392Z,0
2017-11-07T00:22:26.086Z,0
2017-11-07T00:23:25.778Z,0
2017-11-07T00:24:25.847Z,0
2017-11-07T00:25:26.468Z,0
2017-11-07T00:26:25.506Z,0
2017-11-07T00:27:26.165Z,0
2017-11-07T00:28:26.180Z,0
2017-11-07T00:29:26.513Z,0
2017-11-07T00:30:26.099Z,0
2017-11-07T00:31:26.241Z,0
2017-11-07T00:32:26.260Z,0
2017-11-07T00:33:26.313Z,0
2017-11-07T00:34:25.968Z,0
2017-11-07T00:35:26.301Z,0
2017-11-07T00:36:26.323Z,0
2017-11-07T00:37:26.021Z,0
2017-11-07T00:38:26.357Z,0
2017-11-07T00:39:26.740Z,0
2017-11-07T00:40:26.068Z,0
2017-11-07T00:41:25.753Z,0
2017-11-07T00:42:26.425Z,0
2017-11-07T00:43:26.449Z,0
2017-11-07T00:44:26.451Z,0
2017-11-07T00:45:26.143Z,0
2017-11-07T00:46:26.489Z,0
2017-11-07T00:47:26.192Z,0
2017-11-07T00:48:26.533Z,0
2017-11-07T00:49:26.242Z,0
2017-11-07T00:50:25.908Z,0
2017-11-07T00:51:26.566Z,0
2017-11-07T00:52:26.583Z,0
2017-11-07T00:53:26.274Z,0
2017-11-07T00:54:26.662Z,0
2017-11-07T00:55:26.948Z,0
2017-11-07T00:56:26.971Z,0
2017-11-07T00:57:26.671Z,0
2017-11-07T00:58:26.370Z,0
2017-11-07T00:59:27.017Z,0
2017-11-07T01:00:26.072Z,0
2017-11-07T01:01:26.413Z,0
2017-11-07T01:02:26.427Z,0
2017-11-07T01:03:26.760Z,0
2017-11-07T01:04:26.782Z,0
2017-11-07T01:05:26.805Z,0
2017-11-07T01:06:26.170Z,0
2017-11-07T01:07:26.834Z,0
2017-11-07T01:08:26.531Z,0
2017-11-07T01:09:26.605Z,0
2017-11-07T01:10:26.886Z,0
2017-11-07T01:11:26.897Z,0
2017-11-07T01:12:26.914Z,0
2017-11-07T01:13:26.616Z,0
2017-11-07T01:14:25.981Z,0
2017-11-07T01:15:26.970Z,0
2017-11-07T01:16:26.676Z,0
2017-11-07T01:17:27.320Z,0
2017-11-07T01:18:26.700Z,0
2017-11-07T01:19:26.393Z,0
2017-11-07T01:20:27.369Z,0
2017-11-07T01:21:26.741Z,0
2017-11-07T01:22:27.072Z,0
2017-11-07T01:23:27.100Z,0
2017-11-07T01:24:26.517Z,0
2017-11-07T01:25:27.120Z,0
2017-11-07T01:26:27.147Z,0
2017-11-07T01:27:26.836Z,0
2017-11-07T01:28:27.179Z,0
2017-11-07T01:29:27.188Z,0
2017-11-07T01:30:26.565Z,0
2017-11-07T01:31:26.910Z,0
2017-11-07T01:32:26.927Z,0
2017-11-07T01:33:26.619Z,0
2017-11-07T01:34:26.968Z,0
2017-11-07T01:35:26.994Z,0
2017-11-07T01:36:27.315Z,0
2017-11-07T01:37:27.339Z,0
2017-11-07T01:38:27.671Z,0
2017-11-07T01:39:27.369Z,0
2017-11-07T01:40:27.718Z,0
2017-11-07T01:41:27.448Z,0
2017-11-07T01:42:27.116Z,0
2017-11-07T01:43:27.429Z,0
2017-11-07T01:44:27.456Z,0
2017-11-07T01:45:27.806Z,0
2017-11-07T01:46:27.166Z,0
2017-11-07T01:47:27.203Z,0
2017-11-07T01:48:27.846Z,0
2017-11-07T01:49:27.533Z,0
2017-11-07T01:50:26.911Z,0
2017-11-07T01:51:27.251Z,0
2017-11-07T01:52:26.940Z,0
2017-11-07T01:53:27.929Z,0
2017-11-07T01:54:26.972Z,0
2017-11-07T01:55:27.309Z,0
2017-11-07T01:56:27.701Z,0
2017-11-07T01:57:27.672Z,0
2017-11-07T01:58:27.360Z,0
2017-11-07T01:59:27.408Z,0
2017-11-07T02:00:27.738Z,0
2017-11-07T02:01:27.092Z,0
2017-11-07T02:02:28.082Z,0
2017-11-07T02:03:27.770Z,0
2017-11-07T02:04:27.788Z,0
2017-11-07T02:05:27.476Z,0
2017-11-07T02:06:27.816Z,0
2017-11-07T02:07:27.834Z,0
2017-11-07T02:08:27.850Z,0
2017-11-07T02:09:28.177Z,0
2017-11-07T02:10:27.238Z,0
2017-11-07T02:11:27.949Z,0
2017-11-07T02:12:27.928Z,0
2017-11-07T02:13:27.287Z,0
2017-11-07T02:14:27.300Z,0
2017-11-07T02:15:27.997Z,0
2017-11-07T02:16:27.657Z,0
2017-11-07T02:17:27.997Z,0
2017-11-07T02:18:28.042Z,0
2017-11-07T02:19:27.751Z,0
2017-11-07T02:20:28.368Z,0
2017-11-07T02:21:27.416Z,0
2017-11-07T02:22:27.753Z,0
2017-11-07T02:23:28.429Z,0
2017-11-07T02:24:28.459Z,0
2017-11-07T02:25:27.802Z,0
2017-11-07T02:26:28.511Z,0
2017-11-07T02:27:27.839Z,0
2017-11-07T02:28:28.186Z,0
2017-11-07T02:29:27.546Z,0
2017-11-07T02:30:28.209Z,0
2017-11-07T02:31:27.901Z,0
2017-11-07T02:32:28.577Z,0
2017-11-07T02:33:28.277Z,0
2017-11-07T02:34:28.270Z,0
2017-11-07T02:35:27.979Z,0
2017-11-07T02:36:28.314Z,0
2017-11-07T02:37:28.340Z,0
2017-11-07T02:38:28.331Z,0
2017-11-07T02:39:28.704Z,0
2017-11-07T02:40:28.367Z,0
2017-11-07T02:41:28.209Z,0
2017-11-07T02:42:28.076Z,0
2017-11-07T02:43:28.093Z,0
2017-11-07T02:44:28.434Z,0
2017-11-07T02:45:28.777Z,0
2017-11-07T02:46:28.154Z,0
2017-11-07T02:47:28.806Z,0
2017-11-07T02:48:28.505Z,0
2017-11-07T02:49:28.515Z,0
2017-11-07T02:50:28.208Z,0
2017-11-07T02:51:28.886Z,0
2017-11-07T02:52:28.593Z,0
2017-11-07T02:53:28.273Z,0
2017-11-07T02:54:28.284Z,0
2017-11-07T02:55:28.294Z,0
2017-11-07T02:56:28.366Z,0
2017-11-07T02:57:28.328Z,0
2017-11-07T02:58:28.990Z,0
2017-11-07T02:59:28.353Z,0
2017-11-07T03:00:28.684Z,0
2017-11-07T03:01:28.758Z,0
2017-11-07T03:02:28.401Z,0
2017-11-07T03:03:28.100Z,0
2017-11-07T03:04:28.775Z,0
2017-11-07T03:05:28.800Z,0
2017-11-07T03:06:28.465Z,0
2017-11-07T03:07:29.124Z,0
2017-11-07T03:08:28.498Z,0
2017-11-07T03:09:27.868Z,0
2017-11-07T03:10:28.211Z,0
2017-11-07T03:11:28.596Z,0
2017-11-07T03:12:29.212Z,0
2017-11-07T03:13:29.233Z,0
2017-11-07T03:14:28.278Z,0
2017-11-07T03:15:28.293Z,0
2017-11-07T03:16:28.629Z,0
2017-11-07T03:17:28.659Z,0
2017-11-07T03:18:28.662Z,0
2017-11-07T03:19:28.684Z,0
2017-11-07T03:20:29.027Z,0
2017-11-07T03:21:29.024Z,0
2017-11-07T03:22:28.729Z,0
2017-11-07T03:23:29.409Z,0
2017-11-07T03:24:28.765Z,0
2017-11-07T03:25:28.449Z,0
2017-11-07T03:26:29.158Z,0
2017-11-07T03:27:29.453Z,0
2017-11-07T03:28:29.143Z,0
2017-11-07T03:29:28.843Z,0
2017-11-07T03:30:28.869Z,0
2017-11-07T03:31:29.200Z,0
2017-11-07T03:32:29.538Z,0
2017-11-07T03:33:29.229Z,0
2017-11-07T03:34:28.921Z,0
2017-11-07T03:35:28.935Z,0
2017-11-07T03:36:28.974Z,0
2017-11-07T03:37:29.292Z,0
2017-11-07T03:38:28.982Z,0
2017-11-07T03:39:29.001Z,0
2017-11-07T03:40:29.691Z,0
2017-11-07T03:41:28.760Z,0
2017-11-07T03:42:29.043Z,0
2017-11-07T03:43:28.740Z,0
2017-11-07T03:44:29.397Z,0
2017-11-07T03:45:29.413Z,0
2017-11-07T03:46:29.121Z,0
2017-11-07T03:47:29.127Z,0
2017-11-07T03:48:28.822Z,0
2017-11-07T03:49:29.483Z,0
2017-11-07T03:50:29.178Z,0
2017-11-07T03:51:29.219Z,0
2017-11-07T03:52:29.212Z,0
2017-11-07T03:53:29.235Z,0
2017-11-07T03:54:29.245Z,0
2017-11-07T03:55:28.935Z,0
2017-11-07T03:56:29.325Z,0
2017-11-07T03:57:29.617Z,0
2017-11-07T03:58:28.995Z,0
2017-11-07T03:59:29.004Z,0
2017-11-07T04:00:29.349Z,0
2017-11-07T04:01:29.688Z,0
2017-11-07T04:02:29.385Z,0
2017-11-07T04:03:29.395Z,0
2017-11-07T04:04:29.087Z,0
2017-11-07T04:05:30.095Z,0
2017-11-07T04:06:29.766Z,0
2017-11-07T04:07:29.146Z,0
2017-11-07T04:08:29.155Z,0
2017-11-07T04:09:29.494Z,0
2017-11-07T04:10:30.157Z,0
2017-11-07T04:11:29.525Z,0
2017-11-07T04:12:29.872Z,0
2017-11-07T04:13:29.567Z,0
2017-11-07T04:14:29.917Z,0
2017-11-07T04:15:29.590Z,0
2017-11-07T04:16:29.935Z,0
2017-11-07T04:17:29.302Z,0
2017-11-07T04:18:29.648Z,0
2017-11-07T04:19:29.666Z,0
2017-11-07T04:20:30.006Z,0
2017-11-07T04:21:30.015Z,0
2017-11-07T04:22:29.395Z,0
2017-11-07T04:23:30.388Z,0
2017-11-07T04:24:30.066Z,0
2017-11-07T04:25:30.407Z,0
2017-11-07T04:26:30.099Z,0
2017-11-07T04:27:30.110Z,0
2017-11-07T04:28:29.818Z,0
2017-11-07T04:29:30.193Z,0
2017-11-07T04:30:29.190Z,0
2017-11-07T04:31:30.501Z,0
2017-11-07T04:32:29.874Z,0
2017-11-07T04:33:30.538Z,0
2017-11-07T04:34:30.242Z,0
2017-11-07T04:35:30.282Z,0
2017-11-07T04:36:29.946Z,0
2017-11-07T04:37:29.962Z,0
2017-11-07T04:38:30.304Z,0
2017-11-07T04:39:29.999Z,0
2017-11-07T04:40:30.001Z,0
2017-11-07T04:41:30.659Z,0
2017-11-07T04:42:30.383Z,0
2017-11-07T04:43:30.697Z,0
2017-11-07T04:44:30.449Z,0
2017-11-07T04:45:30.406Z,0
2017-11-07T04:46:29.772Z,0
2017-11-07T04:47:30.433Z,0
2017-11-07T04:48:30.129Z,0
2017-11-07T04:49:30.142Z,0
2017-11-07T04:50:29.836Z,0
2017-11-07T04:51:30.817Z,0
2017-11-07T04:52:30.187Z,0
2017-11-07T04:53:30.541Z,0
2017-11-07T04:54:30.221Z,0
2017-11-07T04:55:29.933Z,0
2017-11-07T04:56:30.921Z,0
2017-11-07T04:57:29.620Z,0
2017-11-07T04:58:30.291Z,0
2017-11-07T04:59:30.349Z,0
2017-11-07T05:00:30.959Z,0
2017-11-07T05:01:30.333Z,0
2017-11-07T05:02:30.707Z,0
2017-11-07T05:03:30.367Z,0
2017-11-07T05:04:30.407Z,0
2017-11-07T05:05:31.043Z,0
2017-11-07T05:06:30.745Z,0
2017-11-07T05:07:31.086Z,0
2017-11-07T05:08:30.777Z,0
2017-11-07T05:09:30.463Z,0
2017-11-07T05:10:30.830Z,0
2017-11-07T05:11:30.822Z,0
2017-11-07T05:12:31.163Z,0
2017-11-07T05:13:30.533Z,0
2017-11-07T05:14:30.934Z,0
2017-11-07T05:15:30.997Z,0
2017-11-07T05:16:30.931Z,0
2017-11-07T05:17:30.916Z,0
2017-11-07T05:18:31.274Z,0
2017-11-07T05:19:30.632Z,0
2017-11-07T05:20:30.328Z,0
2017-11-07T05:21:30.665Z,0
2017-11-07T05:22:31.016Z,0
2017-11-07T05:23:30.369Z,0
2017-11-07T05:24:31.028Z,0
2017-11-07T05:25:31.382Z,0
2017-11-07T05:26:30.421Z,0
2017-11-07T05:27:30.767Z,0
2017-11-07T05:28:31.417Z,0
2017-11-07T05:29:31.237Z,0
2017-11-07T05:30:31.131Z,0
2017-11-07T05:31:31.192Z,0
2017-11-07T05:32:30.839Z,0
2017-11-07T05:33:31.625Z,0
2017-11-07T05:34:30.877Z,0
2017-11-07T05:35:30.568Z,0
2017-11-07T05:36:30.583Z,0
2017-11-07T05:37:31.577Z,0
2017-11-07T05:38:30.622Z,0
2017-11-07T05:39:30.962Z,0
2017-11-07T05:40:31.294Z,0
2017-11-07T05:41:31.637Z,0
2017-11-07T05:42:31.007Z,0
2017-11-07T05:43:31.023Z,0
2017-11-07T05:44:31.410Z,0
2017-11-07T05:45:31.065Z,0
2017-11-07T05:46:31.076Z,0
2017-11-07T05:47:31.087Z,0
2017-11-07T05:48:31.170Z,0
2017-11-07T05:49:31.130Z,0
2017-11-07T05:50:31.452Z,0
2017-11-07T05:51:31.472Z,0
2017-11-07T05:52:31.174Z,0
2017-11-07T05:53:31.824Z,0
2017-11-07T05:54:31.543Z,0
2017-11-07T05:55:31.856Z,0
2017-11-07T05:56:31.547Z,0
2017-11-07T05:57:30.920Z,0
2017-11-07T05:58:31.258Z,0
2017-11-07T05:59:31.656Z,0
2017-11-07T06:00:31.293Z,0
2017-11-07T06:01:31.635Z,0
2017-11-07T06:02:31.322Z,0
2017-11-07T06:03:31.415Z,0
2017-11-07T06:04:31.033Z,0
2017-11-07T06:05:31.696Z,0
2017-11-07T06:06:31.062Z,0
2017-11-07T06:07:31.727Z,0
2017-11-07T06:08:32.075Z,0
2017-11-07T06:09:31.790Z,0
2017-11-07T06:10:31.462Z,0
2017-11-07T06:11:31.475Z,0
2017-11-07T06:12:31.481Z,0
2017-11-07T06:13:32.147Z,0
2017-11-07T06:14:31.888Z,0
2017-11-07T06:15:31.533Z,0
2017-11-07T06:16:31.871Z,0
2017-11-07T06:17:31.573Z,0
2017-11-07T06:18:31.280Z,0
2017-11-07T06:19:31.926Z,0
2017-11-07T06:20:32.261Z,0
2017-11-07T06:21:31.959Z,0
2017-11-07T06:22:31.006Z,0
2017-11-07T06:23:32.005Z,0
2017-11-07T06:24:31.680Z,0
2017-11-07T06:25:31.695Z,0
2017-11-07T06:26:31.715Z,0
2017-11-07T06:27:31.727Z,0
2017-11-07T06:28:32.066Z,0
2017-11-07T06:29:32.160Z,0
2017-11-07T06:30:32.435Z,0
2017-11-07T06:31:32.128Z,0
2017-11-07T06:32:31.489Z,0
2017-11-07T06:33:31.831Z,0
2017-11-07T06:34:31.898Z,0
2017-11-07T06:35:31.856Z,0
2017-11-07T06:36:31.554Z,0
2017-11-07T06:37:32.212Z,0
2017-11-07T06:38:32.232Z,0
2017-11-07T06:39:31.975Z,0
2017-11-07T06:40:31.940Z,5
2017-11-07T06:41:31.962Z,5
2017-11-07T06:42:32.622Z,5
2017-11-07T06:43:32.319Z,5
2017-11-07T06:44:31.424Z,5
2017-11-07T06:45:32.026Z,5
2017-11-07T06:46:32.367Z,5
2017-11-07T06:47:32.046Z,5
2017-11-07T06:48:32.390Z,5
2017-11-07T06:49:31.757Z,5
2017-11-07T06:50:32.428Z,5
2017-11-07T06:51:31.812Z,5
2017-11-07T06:52:32.466Z,5
2017-11-07T06:53:32.145Z,5
2017-11-07T06:54:32.166Z,5
2017-11-07T06:55:31.862Z,5
2017-11-07T06:56:32.196Z,5
2017-11-07T06:57:32.221Z,5
2017-11-07T06:58:31.905Z,5
2017-11-07T06:59:32.310Z,5
2017-11-07T07:00:31.938Z,5
2017-11-07T07:01:32.616Z,5
2017-11-07T07:02:32.625Z,5
2017-11-07T07:03:32.633Z,5
2017-11-07T07:04:32.654Z,5
2017-11-07T07:05:32.344Z,5
2017-11-07T07:06:32.044Z,10
2017-11-07T07:07:32.404Z,10
2017-11-07T07:08:33.026Z,10
2017-11-07T07:09:32.716Z,10
2017-11-07T07:10:32.753Z,10
2017-11-07T07:11:32.794Z,10
2017-11-07T07:12:33.102Z,10
2017-11-07T07:13:32.809Z,10
2017-11-07T07:14:32.860Z,10
2017-11-07T07:15:32.183Z,10
2017-11-07T07:16:32.521Z,10
2017-11-07T07:17:33.181Z,10
2017-11-07T07:18:32.551Z,10
2017-11-07T07:19:32.255Z,10
2017-11-07T07:20:32.929Z,10
2017-11-07T07:21:32.601Z,10
2017-11-07T07:22:32.298Z,10
2017-11-07T07:23:32.637Z,10
2017-11-07T07:24:32.329Z,10
2017-11-07T07:25:32.667Z,10
2017-11-07T07:26:33.329Z,15
2017-11-07T07:27:33.028Z,15
2017-11-07T07:28:33.044Z,15
2017-11-07T07:29:33.103Z,15
2017-11-07T07:30:33.090Z,20
2017-11-07T07:31:33.420Z,20
2017-11-07T07:32:32.783Z,15
2017-11-07T07:33:32.491Z,15
2017-11-07T07:34:32.817Z,20
2017-11-07T07:35:32.829Z,30
2017-11-07T07:36:32.852Z,25
2017-11-07T07:37:32.861Z,20
2017-11-07T07:38:32.881Z,20
2017-11-07T07:39:33.210Z,25
2017-11-07T07:40:32.923Z,20
2017-11-07T07:41:32.923Z,25
2017-11-07T07:42:33.268Z,25
2017-11-07T07:43:32.969Z,20
2017-11-07T07:44:33.666Z,25
2017-11-07T07:45:32.999Z,30
2017-11-07T07:46:33.006Z,35
2017-11-07T07:47:32.718Z,25
2017-11-07T07:48:33.038Z,20
2017-11-07T07:49:33.375Z,25
2017-11-07T07:50:33.081Z,30
2017-11-07T07:51:32.762Z,25
2017-11-07T07:52:33.424Z,30
2017-11-07T07:53:33.116Z,30
2017-11-07T07:54:33.453Z,35
2017-11-07T07:55:33.796Z,30
2017-11-07T07:56:33.169Z,25
2017-11-07T07:57:33.187Z,25
2017-11-07T07:58:33.856Z,25
2017-11-07T07:59:33.589Z,25
2017-11-07T08:00:33.231Z,30
2017-11-07T08:01:33.893Z,20
2017-11-07T08:02:32.940Z,20
2017-11-07T08:03:33.610Z,20
2017-11-07T08:04:33.296Z,25
2017-11-07T08:05:33.990Z,30
2017-11-07T08:06:33.034Z,35
2017-11-07T08:07:33.350Z,35
2017-11-07T08:08:33.372Z,35
2017-11-07T08:09:33.391Z,30
2017-11-07T08:10:33.400Z,35
2017-11-07T08:11:34.061Z,35
2017-11-07T08:12:33.435Z,35
2017-11-07T08:13:33.777Z,30
2017-11-07T08:14:33.143Z,30
2017-11-07T08:15:33.162Z,25
2017-11-07T08:16:33.204Z,25
2017-11-07T08:17:33.844Z,25
2017-11-07T08:18:34.232Z,25
2017-11-07T08:19:33.228Z,30
2017-11-07T08:20:33.240Z,25
2017-11-07T08:21:33.582Z,25
2017-11-07T08:22:33.595Z,30
2017-11-07T08:23:34.256Z,35
2017-11-07T08:24:33.634Z,35
2017-11-07T08:25:33.651Z,35
2017-11-07T08:26:33.668Z,35
2017-11-07T08:27:34.018Z,40
2017-11-07T08:28:34.029Z,40
2017-11-07T08:29:33.714Z,40
2017-11-07T08:30:33.732Z,40
2017-11-07T08:31:33.424Z,35
2017-11-07T08:32:34.087Z,35
2017-11-07T08:33:33.519Z,35
2017-11-07T08:34:34.125Z,35
2017-11-07T08:35:34.132Z,45
2017-11-07T08:36:33.838Z,45
2017-11-07T08:37:34.509Z,45
2017-11-07T08:38:33.221Z,40
2017-11-07T08:39:33.885Z,35
2017-11-07T08:40:34.552Z,35
2017-11-07T08:41:34.567Z,35
2017-11-07T08:42:33.619Z,35
2017-11-07T08:43:33.952Z,35
2017-11-07T08:44:33.973Z,35
2017-11-07T08:45:33.667Z,30
2017-11-07T08:46:34.318Z,30
2017-11-07T08:47:34.017Z,25
2017-11-07T08:48:34.412Z,30
2017-11-07T08:49:34.375Z,30
2017-11-07T08:50:34.396Z,30
2017-11-07T08:51:34.407Z,30
2017-11-07T08:52:34.087Z,30
2017-11-07T08:53:34.108Z,30
2017-11-07T08:54:34.448Z,30
2017-11-07T08:55:34.467Z,25
2017-11-07T08:56:34.527Z,25
2017-11-07T08:57:34.817Z,25
2017-11-07T08:58:34.512Z,20
2017-11-07T08:59:34.858Z,25
2017-11-07T09:00:33.911Z,20
2017-11-07T09:01:34.582Z,20
2017-11-07T09:02:34.594Z,20
2017-11-07T09:03:34.655Z,20
2017-11-07T09:04:33.661Z,20
2017-11-07T09:05:34.634Z,20
2017-11-07T09:06:34.972Z,20
2017-11-07T09:07:34.665Z,20
2017-11-07T09:08:34.380Z,20
2017-11-07T09:09:34.380Z,20
2017-11-07T09:10:34.402Z,25
2017-11-07T09:11:34.422Z,30
2017-11-07T09:12:34.442Z,25
2017-11-07T09:13:35.103Z,25
2017-11-07T09:14:34.143Z,30
2017-11-07T09:15:34.805Z,30
2017-11-07T09:16:34.508Z,30
2017-11-07T09:17:34.518Z,30
2017-11-07T09:18:34.905Z,30
2017-11-07T09:19:34.571Z,30
2017-11-07T09:20:34.892Z,30
2017-11-07T09:21:34.907Z,25
2017-11-07T09:22:34.286Z,25
2017-11-07T09:23:34.939Z,25
2017-11-07T09:24:34.634Z,30
2017-11-07T09:25:34.654Z,35
2017-11-07T09:26:34.999Z,30
2017-11-07T09:27:35.005Z,30
2017-11-07T09:28:35.346Z,30
2017-11-07T09:29:34.720Z,30
2017-11-07T09:30:34.415Z,30
2017-11-07T09:31:35.071Z,30
2017-11-07T09:32:34.773Z,30
2017-11-07T09:33:34.840Z,30
2017-11-07T09:34:35.128Z,30
2017-11-07T09:35:34.820Z,30
2017-11-07T09:36:35.489Z,35
2017-11-07T09:37:34.851Z,35
2017-11-07T09:38:35.238Z,30
2017-11-07T09:39:35.531Z,30
2017-11-07T09:40:34.913Z,30
2017-11-07T09:41:34.619Z,25
2017-11-07T09:42:35.267Z,25
2017-11-07T09:43:35.297Z,25
2017-11-07T09:44:35.296Z,25
2017-11-07T09:45:35.318Z,25
2017-11-07T09:46:34.689Z,25
2017-11-07T09:47:35.358Z,25
2017-11-07T09:48:35.741Z,25
2017-11-07T09:49:34.737Z,30
2017-11-07T09:50:35.400Z,30
2017-11-07T09:51:35.736Z,35
2017-11-07T09:52:35.120Z,35
2017-11-07T09:53:35.455Z,35
2017-11-07T09:54:34.498Z,35
2017-11-07T09:55:35.485Z,35
2017-11-07T09:56:35.505Z,40
2017-11-07T09:57:35.193Z,40
2017-11-07T09:58:35.552Z,40
2017-11-07T09:59:35.549Z,35
2017-11-07T10:00:34.926Z,35
2017-11-07T10:01:34.618Z,35
2017-11-07T10:02:34.958Z,30
2017-11-07T10:03:35.359Z,30
2017-11-07T10:04:35.636Z,30
2017-11-07T10:05:35.667Z,25
2017-11-07T10:06:35.674Z,25
2017-11-07T10:07:35.691Z,30
2017-11-07T10:08:36.022Z,25
2017-11-07T10:09:35.727Z,25
2017-11-07T10:10:35.731Z,25
2017-11-07T10:11:35.427Z,25
2017-11-07T10:12:35.125Z,25
2017-11-07T10:13:35.480Z,25
2017-11-07T10:14:35.806Z,25
2017-11-07T10:15:35.816Z,25
2017-11-07T10:16:35.515Z,20
2017-11-07T10:17:35.213Z,20
2017-11-07T10:18:35.287Z,20
2017-11-07T10:19:35.566Z,20
2017-11-07T10:20:35.914Z,25
2017-11-07T10:21:35.280Z,25
2017-11-07T10:22:35.941Z,20
2017-11-07T10:23:35.637Z,20
2017-11-07T10:24:36.021Z,20
2017-11-07T10:25:35.028Z,20
2017-11-07T10:26:35.361Z,25
2017-11-07T10:27:35.383Z,25
2017-11-07T10:28:36.068Z,25
2017-11-07T10:29:35.740Z,25
2017-11-07T10:30:35.457Z,25
2017-11-07T10:31:35.775Z,25
2017-11-07T10:32:35.477Z,25
2017-11-07T10:33:35.549Z,20
2017-11-07T10:34:35.827Z,25
2017-11-07T10:35:36.161Z,25
2017-11-07T10:36:36.178Z,25
2017-11-07T10:37:36.213Z,25
2017-11-07T10:38:35.898Z,25
2017-11-07T10:39:36.246Z,25
2017-11-07T10:40:36.256Z,25
2017-11-07T10:41:35.944Z,25
2017-11-07T10:42:35.961Z,25
2017-11-07T10:43:36.312Z,25
2017-11-07T10:44:36.320Z,25
2017-11-07T10:45:36.683Z,25
2017-11-07T10:46:36.365Z,25
2017-11-07T10:47:36.396Z,25
2017-11-07T10:48:36.435Z,25
2017-11-07T10:49:36.424Z,30
2017-11-07T10:50:35.777Z,30
2017-11-07T10:51:35.795Z,30
2017-11-07T10:52:36.777Z,30
2017-11-07T10:53:36.148Z,30
2017-11-07T10:54:36.172Z,30
2017-11-07T10:55:36.838Z,35
2017-11-07T10:56:36.522Z,35
2017-11-07T10:57:36.218Z,35
2017-11-07T10:58:36.238Z,35
2017-11-07T10:59:36.263Z,30
2017-11-07T11:00:36.277Z,30
2017-11-07T11:01:36.298Z,35
2017-11-07T11:02:36.333Z,35
2017-11-07T11:03:36.712Z,35
2017-11-07T11:04:36.343Z,35
2017-11-07T11:05:36.369Z,35
2017-11-07T11:06:37.026Z,35
2017-11-07T11:07:36.091Z,40
2017-11-07T11:08:36.139Z,40
2017-11-07T11:09:36.443Z,50
2017-11-07T11:10:36.121Z,45
2017-11-07T11:11:36.462Z,40
2017-11-07T11:12:36.483Z,35
2017-11-07T11:13:35.856Z,30
2017-11-07T11:14:36.515Z,35
2017-11-07T11:15:36.222Z,45
2017-11-07T11:16:35.914Z,40
2017-11-07T11:17:36.897Z,40
2017-11-07T11:18:36.963Z,45
2017-11-07T11:19:36.624Z,45
2017-11-07T11:20:36.621Z,40
2017-11-07T11:21:35.996Z,35
2017-11-07T11:22:37.300Z,30
2017-11-07T11:23:36.678Z,30
2017-11-07T11:24:36.367Z,30
2017-11-07T11:25:37.031Z,40
2017-11-07T11:26:36.411Z,40
2017-11-07T11:27:37.079Z,50
2017-11-07T11:28:37.405Z,55
2017-11-07T11:29:36.780Z,45
2017-11-07T11:30:36.792Z,40
2017-11-07T11:31:36.821Z,30
2017-11-07T11:32:36.836Z,25
2017-11-07T11:33:36.526Z,30
2017-11-07T11:34:36.870Z,30
2017-11-07T11:35:36.881Z,40
2017-11-07T11:36:37.229Z,40
2017-11-07T11:37:37.237Z,45
2017-11-07T11:38:37.261Z,35
2017-11-07T11:39:37.269Z,30
2017-11-07T11:40:37.616Z,40
2017-11-07T11:41:37.323Z,40
2017-11-07T11:42:37.647Z,45
2017-11-07T11:43:37.662Z,40
2017-11-07T11:44:37.036Z,40
2017-11-07T11:45:36.744Z,40
2017-11-07T11:46:36.758Z,55
2017-11-07T11:47:37.100Z,55
2017-11-07T11:48:37.486Z,50
2017-11-07T11:49:36.814Z,45
2017-11-07T11:50:37.470Z,50
2017-11-07T11:51:37.482Z,70
2017-11-07T11:52:37.186Z,70
2017-11-07T11:53:36.871Z,65
2017-11-07T11:54:37.222Z,60
2017-11-07T11:55:37.566Z,55
2017-11-07T11:56:36.928Z,55
2017-11-07T11:57:37.609Z,55
2017-11-07T11:58:37.617Z,55
2017-11-07T11:59:37.623Z,55
2017-11-07T12:00:37.323Z,55
2017-11-07T12:01:37.012Z,50
2017-11-07T12:02:38.004Z,45
2017-11-07T12:03:37.415Z,45
2017-11-07T12:04:37.721Z,45
2017-11-07T12:05:37.725Z,35
2017-11-07T12:06:37.751Z,35
2017-11-07T12:07:36.798Z,40
2017-11-07T12:08:37.787Z,35
2017-11-07T12:09:37.480Z,35
2017-11-07T12:10:37.499Z,35
2017-11-07T12:11:37.843Z,40
2017-11-07T12:12:37.208Z,40
2017-11-07T12:13:37.547Z,40
2017-11-07T12:14:37.250Z,35
2017-11-07T12:15:37.585Z,30
2017-11-07T12:16:37.605Z,30
2017-11-07T12:17:37.951Z,30
2017-11-07T12:18:37.710Z,30
2017-11-07T12:19:37.331Z,30
2017-11-07T12:20:37.674Z,30
2017-11-07T12:21:37.382Z,25
2017-11-07T12:22:38.031Z,20
2017-11-07T12:23:38.062Z,20
2017-11-07T12:24:37.119Z,20
2017-11-07T12:25:38.416Z,20
2017-11-07T12:26:37.778Z,20
2017-11-07T12:27:38.448Z,20
2017-11-07T12:28:37.874Z,20
2017-11-07T12:29:38.162Z,25
2017-11-07T12:30:38.173Z,25
2017-11-07T12:31:38.184Z,25
2017-11-07T12:32:37.563Z,25
2017-11-07T12:33:38.283Z,30
2017-11-07T12:34:37.600Z,30
2017-11-07T12:35:38.266Z,30
2017-11-07T12:36:38.279Z,25
2017-11-07T12:37:38.316Z,30
2017-11-07T12:38:38.644Z,35
2017-11-07T12:39:38.011Z,35
2017-11-07T12:40:38.033Z,30
2017-11-07T12:41:38.384Z,25
2017-11-07T12:42:38.067Z,20
2017-11-07T12:43:38.080Z,20
2017-11-07T12:44:38.099Z,25
2017-11-07T12:45:37.805Z,25
2017-11-07T12:46:38.464Z,25
2017-11-07T12:47:38.473Z,25
2017-11-07T12:48:38.538Z,25
2017-11-07T12:49:38.504Z,25
2017-11-07T12:50:38.537Z,25
2017-11-07T12:51:38.228Z,20
2017-11-07T12:52:38.266Z,20
2017-11-07T12:53:38.307Z,20
2017-11-07T12:54:37.952Z,20
2017-11-07T12:55:37.977Z,25
2017-11-07T12:56:39.028Z,25
2017-11-07T12:57:38.658Z,25
2017-11-07T12:58:38.027Z,20
2017-11-07T12:59:38.049Z,25
2017-11-07T13:00:38.066Z,25
2017-11-07T13:01:39.051Z,30
2017-11-07T13:02:39.091Z,30
2017-11-07T13:03:38.770Z,30
2017-11-07T13:04:39.142Z,30
2017-11-07T13:05:38.491Z,35
2017-11-07T13:06:38.803Z,35
2017-11-07T13:07:38.832Z,30
2017-11-07T13:08:38.851Z,30
2017-11-07T13:09:38.555Z,25
2017-11-07T13:10:38.900Z,25
2017-11-07T13:11:39.248Z,30
2017-11-07T13:12:39.257Z,25
2017-11-07T13:13:38.941Z,30
2017-11-07T13:14:39.284Z,30
2017-11-07T13:15:38.973Z,30
2017-11-07T13:16:39.015Z,30
2017-11-07T13:17:38.707Z,35
2017-11-07T13:18:38.698Z,50
2017-11-07T13:19:39.084Z,50
2017-11-07T13:20:38.735Z,45
2017-11-07T13:21:39.068Z,35
2017-11-07T13:22:38.780Z,30
2017-11-07T13:23:38.783Z,25
2017-11-07T13:24:39.128Z,25
2017-11-07T13:25:39.160Z,25
2017-11-07T13:26:39.211Z,25
2017-11-07T13:27:38.870Z,25
2017-11-07T13:28:39.208Z,30
2017-11-07T13:29:39.220Z,30
2017-11-07T13:30:38.600Z,30
2017-11-07T13:31:39.257Z,30
2017-11-07T13:32:38.946Z,30
2017-11-07T13:33:39.290Z,25
2017-11-07T13:34:39.454Z,25
2017-11-07T13:35:39.016Z,25
2017-11-07T13:36:38.701Z,25
2017-11-07T13:37:39.370Z,25
2017-11-07T13:38:39.058Z,20
2017-11-07T13:39:39.073Z,25
2017-11-07T13:40:39.422Z,30
2017-11-07T13:41:39.446Z,30
2017-11-07T13:42:39.133Z,30
2017-11-07T13:43:39.149Z,35
2017-11-07T13:44:39.496Z,35
2017-11-07T13:45:39.499Z,30
2017-11-07T13:46:39.193Z,30
2017-11-07T13:47:39.541Z,30
2017-11-07T13:48:39.568Z,25
2017-11-07T13:49:39.930Z,25
2017-11-07T13:50:39.342Z,25
2017-11-07T13:51:39.300Z,20
2017-11-07T13:52:38.983Z,20
2017-11-07T13:53:39.654Z,20
2017-11-07T13:54:39.660Z,20
2017-11-07T13:55:39.358Z,20
2017-11-07T13:56:39.382Z,20
2017-11-07T13:57:39.720Z,20
2017-11-07T13:58:39.748Z,15
2017-11-07T13:59:40.072Z,20
2017-11-07T14:00:39.775Z,20
2017-11-07T14:01:38.822Z,20
2017-11-07T14:02:39.482Z,20
2017-11-07T14:03:39.501Z,15
2017-11-07T14:04:39.526Z,15
2017-11-07T14:05:39.320Z,15
2017-11-07T14:06:38.909Z,15
2017-11-07T14:07:39.901Z,15
2017-11-07T14:08:39.607Z,15
2017-11-07T14:09:39.927Z,20
2017-11-07T14:10:39.998Z,20
2017-11-07T14:11:39.647Z,20
2017-11-07T14:12:40.305Z,20
2017-11-07T14:13:39.676Z,20
2017-11-07T14:14:39.053Z,20
2017-11-07T14:15:39.451Z,25
2017-11-07T14:16:40.051Z,25
2017-11-07T14:17:40.070Z,20
2017-11-07T14:18:39.769Z,20
2017-11-07T14:19:39.787Z,20
2017-11-07T14:20:39.857Z,15
2017-11-07T14:21:40.141Z,15
2017-11-07T14:22:39.521Z,15
2017-11-07T14:39:18.439Z,10
2017-11-07T14:40:18.066Z,10
2017-11-07T14:41:18.398Z,5
2017-11-07T14:42:17.795Z,5
2017-11-07T14:43:18.101Z,5
2017-11-07T14:44:17.789Z,5
2017-11-07T14:45:18.769Z,5
2017-11-07T14:46:18.786Z,5
2017-11-07T14:47:18.485Z,5